Flight Track Log - Related Links

Times and Time Zones

All times are in EDT time to prevent confusion due to time zone crossing. See the N776MA flight status page for this flight to view local times or setup timezone preferences in your user account.

Time Position Orientation Groundspeed Altitude Reporting Facility
EDT Latitude Longitude Course Direction KTS MPH feet Rate Location/Type
Sun 11:28:58 AM 39.3500 -76.4500 270° West 200 230 1,200  Level Potomac TRACON
Sun 11:29:58 AM 39.3500 -76.5167 270° West 248 285 3,100 2,529 Climbing Potomac TRACON
Sun 11:30:59 AM 39.3167 -76.6000 243° Southwest 265 305 6,300 2,826 Climbing Potomac TRACON
Sun 11:31:59 AM 39.2833 -76.7000 247° West 278 320 8,800 1,800 Climbing Potomac TRACON
Sun 11:32:59 AM 39.2833 -76.8000 270° West 300 345 9,900 1,500 Climbing Potomac TRACON
Sun 11:34:35 AM 39.2953 -76.9808 275° West 334 384 12,700 2,077 Climbing Washington Center
Sun 11:35:35 AM 39.3272 -77.0967 290° West 334 384 15,300 2,182 Climbing Washington Center
Sun 11:36:36 AM 39.3569 -77.2128 288° West 339 390 17,100 885 Climbing Washington Center
Sun 11:37:37 AM 39.3886 -77.3317 289° West 346 398 17,100 807 Level Washington Center
Sun 11:38:35 AM 39.4200 -77.4533 289° West 352 405 18,700 1,831 Climbing Washington Center
Sun 11:39:35 AM 39.4536 -77.5750 290° West 352 405 20,700 1,869 Climbing Washington Center
Sun 11:40:37 AM 39.4889 -77.6997 290° West 357 411 22,500 1,623 Climbing Washington Center
Sun 11:41:37 AM 39.5283 -77.8300 291° West 372 428 24,000 1,576 Climbing Washington Center
Sun 11:42:35 AM 39.5675 -77.9606 291° West 384 442 25,600 1,683 Climbing Washington Center
Sun 11:43:56 AM 39.6286 -78.1600 292° West 414 476 27,900 1,574 Climbing Cleveland Center
Sun 11:44:56 AM 39.6667 -78.2881 291° West 420 483 29,300 1,450 Climbing Cleveland Center
Sun 11:45:56 AM 39.7069 -78.4269 291° West 426 490 30,800 1,350 Climbing Cleveland Center
Sun 11:46:56 AM 39.7492 -78.5742 290° West 426 490 32,000 600 Climbing Cleveland Center
Sun 11:47:56 AM 39.7892 -78.7189 290° West 426 490 32,000  Level Cleveland Center
Sun 11:48:56 AM 39.8311 -78.8639 291° West 426 490 32,000 450 Level Cleveland Center
Sun 11:49:56 AM 39.8814 -79.0219 293° West 426 490 32,900 1,300 Climbing Cleveland Center
Sun 11:50:56 AM 39.9228 -79.1672 290° West 426 490 34,600 1,550 Climbing Cleveland Center
Sun 11:51:56 AM 39.9744 -79.3072 296° West 426 490 36,000 700 Climbing Cleveland Center
Sun 11:52:56 AM 40.0239 -79.4472 295° West 431 496 36,000  Level Cleveland Center
Sun 11:53:56 AM 40.0753 -79.5875 296° West 431 496 36,000  Level Cleveland Center
Sun 11:54:56 AM 40.1264 -79.7250 296° West 431 496 36,000  Level Cleveland Center
Sun 11:55:56 AM 40.1753 -79.8631 295° West 426 490 36,000 -300 Level Cleveland Center
Sun 11:56:56 AM 40.2242 -80.0011 295° West 426 490 35,400 -750 Descending Cleveland Center
Sun 11:57:56 AM 40.2683 -80.1286 294° West 426 490 34,500 -700 Descending Cleveland Center
Sun 11:58:56 AM 40.3189 -80.2728 295° West 426 490 34,000 -250 Descending Cleveland Center
Sun 11:59:56 AM 40.3714 -80.4142 296° West 426 490 34,000 -100 Level Cleveland Center
Sun 12:00:56 PM 40.4217 -80.5531 295° West 426 490 33,800 -700 Descending Cleveland Center
Sun 12:01:56 PM 40.4714 -80.6894 296° West 421 484 32,600 -900 Descending Cleveland Center
Sun 12:02:56 PM 40.5214 -80.8317 295° West 421 484 32,000 -300 Descending Cleveland Center
Sun 12:03:56 PM 40.5708 -80.9739 295° West 421 484 32,000  Level Cleveland Center
Sun 12:04:56 PM 40.6183 -81.1219 293° West 427 491 32,000  Level Cleveland Center
Sun 12:05:56 PM 40.6675 -81.2675 294° West 434 499 32,000  Level Cleveland Center
Sun 12:06:56 PM 40.7167 -81.4078 295° West 434 499 32,000 -400 Level Cleveland Center
Sun 12:07:56 PM 40.7675 -81.5644 293° West 434 499 31,200 -500 Descending Cleveland Center
Sun 12:08:56 PM 40.8161 -81.7081 294° West 429 494 31,000 -100 Descending Cleveland Center
Sun 12:09:56 PM 40.8228 -81.8644 273° West 418 481 31,000 -400 Level Cleveland Center
Sun 12:10:56 PM 40.8294 -82.0156 273° West 418 481 30,200 -1,100 Descending Cleveland Center
Sun 12:11:56 PM 40.8378 -82.1694 274° West 423 487 28,800 -1,350 Descending Cleveland Center
Sun 12:12:56 PM 40.8858 -82.3133 294° West 418 481 27,500 -1,200 Descending Cleveland Center
Sun 12:13:56 PM 40.9400 -82.4414 299° West 435 501 26,400 -1,250 Descending Cleveland Center
Sun 12:14:56 PM 41.0022 -82.5833 300° West 450 518 25,000 -1,950 Descending Cleveland Center
Sun 12:15:56 PM 41.0583 -82.7144 300° West 436 502 22,500 -2,450 Descending Cleveland Center
Sun 12:16:56 PM 41.1103 -82.8319 300° West 391 450 20,100 -2,200 Descending Cleveland Center
Sun 12:17:56 PM 41.1581 -82.9439 300° West 360 414 18,100 -1,150 Descending Cleveland Center
Sun 12:18:56 PM 41.2078 -83.0589 300° West 360 414 17,800 -1,200 Descending Cleveland Center
Sun 12:19:56 PM 41.2569 -83.1822 298° West 355 409 15,700 -2,200 Descending Cleveland Center
Sun 12:20:56 PM 41.2967 -83.2778 299° West 345 397 13,400 -2,450 Descending Cleveland Center
Sun 12:21:56 PM 41.3400 -83.3764 300° West 330 380 10,800 -2,700 Descending Cleveland Center
Sun 12:22:56 PM 41.3772 -83.4722 297° West 313 360 8,000 -2,650 Descending Cleveland Center
Sun 12:23:56 PM 41.4125 -83.5597 298° West 288 331 5,500 -2,050 Descending Cleveland Center
Sun 12:24:56 PM 41.4564 -83.6364 307° West 271 312 3,900 -1,250 Descending Cleveland Center
Sun 12:25:56 PM 41.5025 -83.7081 311° West 259 298 3,000 -650 Descending Cleveland Center
Sun 12:26:56 PM 41.5128 -83.7861 280° West 245 282 2,600 -250 Descending Cleveland Center
Sun 12:27:56 PM 41.5044 -83.8606 262° West 214 246 2,500 -100 Descending Cleveland Center
Sun 12:29:00 PM 41.5833 -83.8000 323° Northwest  Level FlightAware Approximate
Sun 12:36:00 PM 41.5868 -83.8078 323° Northwest  Level Estimated
Sun 12:37:00 PM 41.5833 -83.8000 323° Northwest  Level FlightAware Approximate
Sun 12:38:00 PM 41.5868 -83.8078 323° Northwest  Level Estimated

Login

Don't have an account? Register now (free) for customized features, flight alerts, and more!